sensor_id;sensor_type;location;lat;lon;timestamp;P1;durP1;ratioP1;P2;durP2;ratioP2
33421;SDS011;19763;55.798;37.782;2023-02-01T00:01:59;19.55;;;13.55;;
33421;SDS011;19763;55.798;37.782;2023-02-01T00:04:26;19.73;;;13.70;;
33421;SDS011;19763;55.798;37.782;2023-02-01T00:06:51;24.25;;;13.55;;
33421;SDS011;19763;55.798;37.782;2023-02-01T00:09:17;22.88;;;14.52;;
33421;SDS011;19763;55.798;37.782;2023-02-01T00:11:43;20.55;;;13.65;;
33421;SDS011;19763;55.798;37.782;2023-02-01T00:14:08;19.83;;;12.90;;
33421;SDS011;19763;55.798;37.782;2023-02-01T00:16:34;20.17;;;13.70;;
33421;SDS011;19763;55.798;37.782;2023-02-01T00:19:07;23.02;;;14.80;;
33421;SDS011;19763;55.798;37.782;2023-02-01T00:21:36;20.00;;;13.60;;
33421;SDS011;19763;55.798;37.782;2023-02-01T00:24:02;25.25;;;14.88;;
33421;SDS011;19763;55.798;37.782;2023-02-01T00:29:00;22.65;;;13.82;;
33421;SDS011;19763;55.798;37.782;2023-02-01T00:31:28;21.52;;;13.30;;
33421;SDS011;19763;55.798;37.782;2023-02-01T00:33:54;22.45;;;14.23;;
33421;SDS011;19763;55.798;37.782;2023-02-01T00:36:19;19.40;;;12.75;;
33421;SDS011;19763;55.798;37.782;2023-02-01T00:38:45;20.98;;;13.50;;
33421;SDS011;19763;55.798;37.782;2023-02-01T00:41:12;20.23;;;13.25;;
33421;SDS011;19763;55.798;37.782;2023-02-01T00:43:40;23.73;;;14.52;;
33421;SDS011;19763;55.798;37.782;2023-02-01T00:46:06;20.17;;;14.15;;
33421;SDS011;19763;55.798;37.782;2023-02-01T00:48:32;25.77;;;14.52;;
33421;SDS011;19763;55.798;37.782;2023-02-01T00:51:01;23.55;;;13.90;;
33421;SDS011;19763;55.798;37.782;2023-02-01T00:53:28;21.20;;;13.70;;
33421;SDS011;19763;55.798;37.782;2023-02-01T00:55:54;21.83;;;14.18;;
33421;SDS011;19763;55.798;37.782;2023-02-01T00:58:20;20.95;;;12.82;;
33421;SDS011;19763;55.798;37.782;2023-02-01T01:00:45;21.52;;;12.63;;
33421;SDS011;19763;55.798;37.782;2023-02-01T01:03:11;21.48;;;13.20;;
33421;SDS011;19763;55.798;37.782;2023-02-01T01:05:44;21.38;;;12.75;;
33421;SDS011;19763;55.798;37.782;2023-02-01T01:08:10;21.63;;;13.32;;
33421;SDS011;19763;55.798;37.782;2023-02-01T01:10:36;20.83;;;13.32;;
33421;SDS011;19763;55.798;37.782;2023-02-01T01:13:01;21.58;;;13.68;;
33421;SDS011;19763;55.798;37.782;2023-02-01T01:15:27;19.50;;;13.02;;
33421;SDS011;19763;55.798;37.782;2023-02-01T01:17:52;19.38;;;12.82;;
33421;SDS011;19763;55.798;37.782;2023-02-01T01:20:18;20.25;;;13.05;;
33421;SDS011;19763;55.798;37.782;2023-02-01T01:22:46;17.67;;;11.98;;
33421;SDS011;19763;55.798;37.782;2023-02-01T01:25:12;19.80;;;13.63;;
33421;SDS011;19763;55.798;37.782;2023-02-01T01:27:38;20.65;;;13.02;;
33421;SDS011;19763;55.798;37.782;2023-02-01T01:30:04;25.70;;;13.07;;
33421;SDS011;19763;55.798;37.782;2023-02-01T01:32:30;21.48;;;14.13;;
33421;SDS011;19763;55.798;37.782;2023-02-01T01:34:55;19.30;;;13.45;;
33421;SDS011;19763;55.798;37.782;2023-02-01T01:37:21;20.23;;;12.77;;
33421;SDS011;19763;55.798;37.782;2023-02-01T01:39:47;19.65;;;13.13;;
33421;SDS011;19763;55.798;37.782;2023-02-01T01:42:12;19.38;;;13.20;;
33421;SDS011;19763;55.798;37.782;2023-02-01T01:44:55;20.88;;;13.00;;
33421;SDS011;19763;55.798;37.782;2023-02-01T01:47:21;19.35;;;13.23;;
33421;SDS011;19763;55.798;37.782;2023-02-01T01:49:47;19.42;;;11.98;;
33421;SDS011;19763;55.798;37.782;2023-02-01T01:52:13;20.38;;;13.32;;
33421;SDS011;19763;55.798;37.782;2023-02-01T01:54:43;20.60;;;12.35;;
33421;SDS011;19763;55.798;37.782;2023-02-01T01:57:17;20.33;;;12.70;;
33421;SDS011;19763;55.798;37.782;2023-02-01T01:59:48;21.17;;;13.18;;
33421;SDS011;19763;55.798;37.782;2023-02-01T02:02:18;19.20;;;12.75;;
33421;SDS011;19763;55.798;37.782;2023-02-01T02:04:43;19.10;;;12.70;;
33421;SDS011;19763;55.798;37.782;2023-02-01T02:07:11;20.08;;;12.40;;
33421;SDS011;19763;55.798;37.782;2023-02-01T02:09:42;20.52;;;13.07;;
33421;SDS011;19763;55.798;37.782;2023-02-01T02:12:08;19.58;;;12.93;;
33421;SDS011;19763;55.798;37.782;2023-02-01T02:14:34;20.42;;;13.20;;
33421;SDS011;19763;55.798;37.782;2023-02-01T02:36:07;16.52;;;11.55;;
33421;SDS011;19763;55.798;37.782;2023-02-01T02:44:49;18.60;;;12.27;;
33421;SDS011;19763;55.798;37.782;2023-02-01T02:47:42;18.52;;;12.25;;
33421;SDS011;19763;55.798;37.782;2023-02-01T02:50:29;22.58;;;13.02;;
33421;SDS011;19763;55.798;37.782;2023-02-01T02:56:25;15.68;;;11.25;;
33421;SDS011;19763;55.798;37.782;2023-02-01T02:59:11;20.48;;;13.10;;
33421;SDS011;19763;55.798;37.782;2023-02-01T03:01:58;21.63;;;13.73;;
33421;SDS011;19763;55.798;37.782;2023-02-01T03:04:42;19.48;;;13.02;;
33421;SDS011;19763;55.798;37.782;2023-02-01T03:07:15;20.25;;;13.90;;
33421;SDS011;19763;55.798;37.782;2023-02-01T03:10:17;20.85;;;13.43;;
33421;SDS011;19763;55.798;37.782;2023-02-01T03:12:45;22.52;;;14.23;;
33421;SDS011;19763;55.798;37.782;2023-02-01T03:15:22;22.17;;;14.10;;
33421;SDS011;19763;55.798;37.782;2023-02-01T03:17:57;20.02;;;13.18;;
33421;SDS011;19763;55.798;37.782;2023-02-01T03:20:26;22.50;;;13.57;;
33421;SDS011;19763;55.798;37.782;2023-02-01T03:22:55;23.08;;;14.00;;
33421;SDS011;19763;55.798;37.782;2023-02-01T03:25:24;20.20;;;13.30;;
33421;SDS011;19763;55.798;37.782;2023-02-01T03:28:02;21.52;;;14.48;;
33421;SDS011;19763;55.798;37.782;2023-02-01T03:30:34;22.92;;;14.88;;
33421;SDS011;19763;55.798;37.782;2023-02-01T03:33:03;19.83;;;14.00;;
33421;SDS011;19763;55.798;37.782;2023-02-01T03:38:39;21.38;;;14.00;;
33421;SDS011;19763;55.798;37.782;2023-02-01T03:41:17;23.50;;;14.95;;
33421;SDS011;19763;55.798;37.782;2023-02-01T03:47:05;21.85;;;14.07;;
33421;SDS011;19763;55.798;37.782;2023-02-01T03:49:35;21.92;;;13.20;;
33421;SDS011;19763;55.798;37.782;2023-02-01T03:52:05;21.65;;;13.40;;
33421;SDS011;19763;55.798;37.782;2023-02-01T03:54:33;19.85;;;13.07;;
33421;SDS011;19763;55.798;37.782;2023-02-01T03:57:02;25.58;;;16.08;;
33421;SDS011;19763;55.798;37.782;2023-02-01T03:59:33;24.02;;;14.25;;
33421;SDS011;19763;55.798;37.782;2023-02-01T04:01:58;19.67;;;13.50;;
33421;SDS011;19763;55.798;37.782;2023-02-01T04:04:24;21.95;;;13.15;;
33421;SDS011;19763;55.798;37.782;2023-02-01T04:06:49;19.30;;;13.40;;
33421;SDS011;19763;55.798;37.782;2023-02-01T04:09:15;19.90;;;14.52;;
33421;SDS011;19763;55.798;37.782;2023-02-01T04:11:42;21.80;;;14.25;;
33421;SDS011;19763;55.798;37.782;2023-02-01T04:14:07;20.88;;;13.18;;
33421;SDS011;19763;55.798;37.782;2023-02-01T04:16:33;20.08;;;13.52;;
33421;SDS011;19763;55.798;37.782;2023-02-01T04:18:59;22.02;;;13.82;;
33421;SDS011;19763;55.798;37.782;2023-02-01T04:21:26;20.75;;;13.30;;
33421;SDS011;19763;55.798;37.782;2023-02-01T04:23:52;22.67;;;14.43;;
33421;SDS011;19763;55.798;37.782;2023-02-01T04:26:18;20.48;;;14.57;;
33421;SDS011;19763;55.798;37.782;2023-02-01T04:28:44;23.35;;;14.48;;
33421;SDS011;19763;55.798;37.782;2023-02-01T04:31:12;22.27;;;14.30;;
33421;SDS011;19763;55.798;37.782;2023-02-01T04:33:38;21.73;;;13.73;;
33421;SDS011;19763;55.798;37.782;2023-02-01T04:36:04;23.30;;;15.05;;
33421;SDS011;19763;55.798;37.782;2023-02-01T04:38:30;21.98;;;14.80;;
33421;SDS011;19763;55.798;37.782;2023-02-01T04:40:57;24.33;;;14.95;;
33421;SDS011;19763;55.798;37.782;2023-02-01T04:43:23;23.38;;;14.52;;
33421;SDS011;19763;55.798;37.782;2023-02-01T04:45:49;24.27;;;15.23;;
33421;SDS011;19763;55.798;37.782;2023-02-01T04:48:15;23.70;;;15.43;;
33421;SDS011;19763;55.798;37.782;2023-02-01T04:50:42;23.42;;;14.32;;
33421;SDS011;19763;55.798;37.782;2023-02-01T04:53:11;24.85;;;15.75;;
33421;SDS011;19763;55.798;37.782;2023-02-01T04:55:36;22.85;;;15.52;;
33421;SDS011;19763;55.798;37.782;2023-02-01T04:58:02;22.63;;;13.80;;
33421;SDS011;19763;55.798;37.782;2023-02-01T05:00:27;23.45;;;15.90;;
33421;SDS011;19763;55.798;37.782;2023-02-01T05:02:53;24.98;;;15.52;;
33421;SDS011;19763;55.798;37.782;2023-02-01T05:05:18;23.42;;;14.43;;
33421;SDS011;19763;55.798;37.782;2023-02-01T05:07:45;24.92;;;15.05;;
33421;SDS011;19763;55.798;37.782;2023-02-01T05:10:11;22.02;;;14.50;;
33421;SDS011;19763;55.798;37.782;2023-02-01T05:12:37;27.42;;;16.15;;
33421;SDS011;19763;55.798;37.782;2023-02-01T05:15:21;24.05;;;14.85;;
33421;SDS011;19763;55.798;37.782;2023-02-01T05:17:47;22.63;;;14.02;;
33421;SDS011;19763;55.798;37.782;2023-02-01T05:20:12;22.33;;;15.38;;
33421;SDS011;19763;55.798;37.782;2023-02-01T05:22:38;25.50;;;16.20;;
33421;SDS011;19763;55.798;37.782;2023-02-01T05:25:04;21.95;;;14.05;;
33421;SDS011;19763;55.798;37.782;2023-02-01T05:27:30;23.55;;;13.63;;
33421;SDS011;19763;55.798;37.782;2023-02-01T05:29:55;23.63;;;14.82;;
33421;SDS011;19763;55.798;37.782;2023-02-01T05:32:21;24.30;;;15.10;;
33421;SDS011;19763;55.798;37.782;2023-02-01T05:34:47;27.15;;;15.35;;
33421;SDS011;19763;55.798;37.782;2023-02-01T05:37:12;27.67;;;15.30;;
33421;SDS011;19763;55.798;37.782;2023-02-01T05:39:38;26.60;;;15.50;;
33421;SDS011;19763;55.798;37.782;2023-02-01T05:42:03;25.52;;;15.68;;
33421;SDS011;19763;55.798;37.782;2023-02-01T05:44:29;27.77;;;17.27;;
33421;SDS011;19763;55.798;37.782;2023-02-01T05:46:55;25.52;;;16.23;;
33421;SDS011;19763;55.798;37.782;2023-02-01T05:49:20;31.35;;;16.98;;
33421;SDS011;19763;55.798;37.782;2023-02-01T05:51:46;27.80;;;16.23;;
33421;SDS011;19763;55.798;37.782;2023-02-01T05:54:11;28.17;;;16.95;;
33421;SDS011;19763;55.798;37.782;2023-02-01T05:56:37;29.60;;;17.90;;
33421;SDS011;19763;55.798;37.782;2023-02-01T05:59:03;29.70;;;18.25;;
33421;SDS011;19763;55.798;37.782;2023-02-01T06:01:28;29.65;;;18.02;;
33421;SDS011;19763;55.798;37.782;2023-02-01T06:03:54;34.53;;;18.83;;
33421;SDS011;19763;55.798;37.782;2023-02-01T06:06:19;29.27;;;18.45;;
33421;SDS011;19763;55.798;37.782;2023-02-01T06:08:45;31.65;;;18.83;;
33421;SDS011;19763;55.798;37.782;2023-02-01T06:11:11;30.92;;;17.67;;
33421;SDS011;19763;55.798;37.782;2023-02-01T06:13:38;32.42;;;18.95;;
33421;SDS011;19763;55.798;37.782;2023-02-01T06:16:04;29.55;;;18.98;;
33421;SDS011;19763;55.798;37.782;2023-02-01T06:18:32;33.65;;;18.88;;
33421;SDS011;19763;55.798;37.782;2023-02-01T06:20:59;34.65;;;19.50;;
33421;SDS011;19763;55.798;37.782;2023-02-01T06:23:25;32.85;;;18.83;;
33421;SDS011;19763;55.798;37.782;2023-02-01T06:25:52;39.55;;;20.63;;
33421;SDS011;19763;55.798;37.782;2023-02-01T06:28:18;32.17;;;19.40;;
33421;SDS011;19763;55.798;37.782;2023-02-01T06:30:44;30.02;;;19.15;;
33421;SDS011;19763;55.798;37.782;2023-02-01T06:33:13;35.25;;;21.17;;
33421;SDS011;19763;55.798;37.782;2023-02-01T06:35:42;34.10;;;19.60;;
33421;SDS011;19763;55.798;37.782;2023-02-01T06:38:12;34.58;;;20.50;;
33421;SDS011;19763;55.798;37.782;2023-02-01T06:40:39;35.25;;;20.60;;
33421;SDS011;19763;55.798;37.782;2023-02-01T06:43:07;37.03;;;19.77;;
33421;SDS011;19763;55.798;37.782;2023-02-01T06:45:33;36.22;;;20.88;;
33421;SDS011;19763;55.798;37.782;2023-02-01T06:47:59;39.50;;;21.02;;
33421;SDS011;19763;55.798;37.782;2023-02-01T06:50:25;41.20;;;21.90;;
33421;SDS011;19763;55.798;37.782;2023-02-01T06:52:51;37.28;;;21.23;;
33421;SDS011;19763;55.798;37.782;2023-02-01T06:55:17;40.95;;;21.88;;
33421;SDS011;19763;55.798;37.782;2023-02-01T06:57:42;36.05;;;21.45;;
33421;SDS011;19763;55.798;37.782;2023-02-01T07:00:08;36.55;;;20.58;;
33421;SDS011;19763;55.798;37.782;2023-02-01T07:02:34;32.75;;;19.35;;
33421;SDS011;19763;55.798;37.782;2023-02-01T07:05:00;35.92;;;20.13;;
33421;SDS011;19763;55.798;37.782;2023-02-01T07:07:25;36.85;;;20.65;;
33421;SDS011;19763;55.798;37.782;2023-02-01T07:09:51;40.58;;;21.23;;
33421;SDS011;19763;55.798;37.782;2023-02-01T07:12:17;35.17;;;19.77;;
33421;SDS011;19763;55.798;37.782;2023-02-01T07:14:44;36.50;;;20.70;;
33421;SDS011;19763;55.798;37.782;2023-02-01T07:17:09;39.35;;;21.20;;
33421;SDS011;19763;55.798;37.782;2023-02-01T07:19:35;38.28;;;20.48;;
33421;SDS011;19763;55.798;37.782;2023-02-01T07:22:01;34.90;;;20.10;;
33421;SDS011;19763;55.798;37.782;2023-02-01T07:24:26;36.85;;;20.42;;
33421;SDS011;19763;55.798;37.782;2023-02-01T07:26:52;42.42;;;21.35;;
33421;SDS011;19763;55.798;37.782;2023-02-01T07:29:18;36.70;;;20.40;;
33421;SDS011;19763;55.798;37.782;2023-02-01T07:31:44;37.47;;;21.13;;
33421;SDS011;19763;55.798;37.782;2023-02-01T07:34:09;39.55;;;22.13;;
33421;SDS011;19763;55.798;37.782;2023-02-01T07:36:35;38.80;;;21.90;;
33421;SDS011;19763;55.798;37.782;2023-02-01T07:39:02;54.28;;;22.90;;
33421;SDS011;19763;55.798;37.782;2023-02-01T07:41:28;36.28;;;21.08;;
33421;SDS011;19763;55.798;37.782;2023-02-01T07:43:53;36.17;;;20.90;;
33421;SDS011;19763;55.798;37.782;2023-02-01T07:46:20;34.83;;;20.67;;
33421;SDS011;19763;55.798;37.782;2023-02-01T07:48:46;33.38;;;20.85;;
33421;SDS011;19763;55.798;37.782;2023-02-01T07:51:12;39.67;;;20.88;;
33421;SDS011;19763;55.798;37.782;2023-02-01T07:53:40;36.25;;;20.77;;
33421;SDS011;19763;55.798;37.782;2023-02-01T07:56:13;37.42;;;20.88;;
33421;SDS011;19763;55.798;37.782;2023-02-01T07:58:43;38.45;;;21.95;;
33421;SDS011;19763;55.798;37.782;2023-02-01T08:01:22;34.15;;;20.70;;
33421;SDS011;19763;55.798;37.782;2023-02-01T08:03:59;37.90;;;22.27;;
33421;SDS011;19763;55.798;37.782;2023-02-01T08:06:27;38.70;;;21.35;;
33421;SDS011;19763;55.798;37.782;2023-02-01T08:08:54;34.00;;;20.33;;
33421;SDS011;19763;55.798;37.782;2023-02-01T08:11:20;37.97;;;21.65;;
33421;SDS011;19763;55.798;37.782;2023-02-01T08:13:47;35.15;;;20.98;;
33421;SDS011;19763;55.798;37.782;2023-02-01T08:16:14;32.45;;;20.88;;
33421;SDS011;19763;55.798;37.782;2023-02-01T08:18:41;32.42;;;19.73;;
33421;SDS011;19763;55.798;37.782;2023-02-01T08:21:10;37.75;;;22.33;;
33421;SDS011;19763;55.798;37.782;2023-02-01T08:23:41;32.65;;;20.45;;
33421;SDS011;19763;55.798;37.782;2023-02-01T08:28:44;32.08;;;19.80;;
33421;SDS011;19763;55.798;37.782;2023-02-01T08:31:13;35.22;;;20.75;;
33421;SDS011;19763;55.798;37.782;2023-02-01T08:33:41;35.50;;;20.70;;
33421;SDS011;19763;55.798;37.782;2023-02-01T08:36:08;37.15;;;21.58;;
33421;SDS011;19763;55.798;37.782;2023-02-01T08:38:36;36.58;;;22.67;;
33421;SDS011;19763;55.798;37.782;2023-02-01T08:41:07;34.08;;;20.10;;
33421;SDS011;19763;55.798;37.782;2023-02-01T08:43:34;35.40;;;21.80;;
33421;SDS011;19763;55.798;37.782;2023-02-01T08:46:01;37.50;;;20.60;;
33421;SDS011;19763;55.798;37.782;2023-02-01T08:48:27;33.55;;;20.00;;
33421;SDS011;19763;55.798;37.782;2023-02-01T08:50:53;32.33;;;20.73;;
33421;SDS011;19763;55.798;37.782;2023-02-01T08:53:18;34.97;;;20.20;;
33421;SDS011;19763;55.798;37.782;2023-02-01T08:55:45;30.73;;;19.33;;
33421;SDS011;19763;55.798;37.782;2023-02-01T08:58:12;32.28;;;20.45;;
33421;SDS011;19763;55.798;37.782;2023-02-01T09:00:39;34.28;;;20.00;;
33421;SDS011;19763;55.798;37.782;2023-02-01T09:03:05;29.77;;;19.88;;
33421;SDS011;19763;55.798;37.782;2023-02-01T09:05:31;31.83;;;19.60;;
33421;SDS011;19763;55.798;37.782;2023-02-01T09:07:56;30.38;;;20.92;;
33421;SDS011;19763;55.798;37.782;2023-02-01T09:10:22;33.20;;;20.63;;
33421;SDS011;19763;55.798;37.782;2023-02-01T09:12:47;34.15;;;20.25;;
33421;SDS011;19763;55.798;37.782;2023-02-01T09:15:13;33.25;;;19.73;;
33421;SDS011;19763;55.798;37.782;2023-02-01T09:17:39;29.42;;;18.95;;
33421;SDS011;19763;55.798;37.782;2023-02-01T09:20:06;27.73;;;19.77;;
33421;SDS011;19763;55.798;37.782;2023-02-01T09:22:32;27.52;;;18.60;;
33421;SDS011;19763;55.798;37.782;2023-02-01T09:24:58;28.38;;;16.88;;
33421;SDS011;19763;55.798;37.782;2023-02-01T09:27:23;25.50;;;17.13;;
33421;SDS011;19763;55.798;37.782;2023-02-01T09:29:49;28.80;;;17.67;;
33421;SDS011;19763;55.798;37.782;2023-02-01T09:32:17;25.30;;;16.55;;
33421;SDS011;19763;55.798;37.782;2023-02-01T09:34:47;29.13;;;18.35;;
33421;SDS011;19763;55.798;37.782;2023-02-01T09:37:13;29.58;;;19.05;;
33421;SDS011;19763;55.798;37.782;2023-02-01T09:39:38;26.80;;;18.00;;
33421;SDS011;19763;55.798;37.782;2023-02-01T09:47:43;30.85;;;20.02;;
33421;SDS011;19763;55.798;37.782;2023-02-01T09:50:19;32.10;;;19.83;;
33421;SDS011;19763;55.798;37.782;2023-02-01T09:52:52;29.35;;;19.40;;
33421;SDS011;19763;55.798;37.782;2023-02-01T09:55:57;27.08;;;18.17;;
33421;SDS011;19763;55.798;37.782;2023-02-01T09:58:37;29.27;;;17.98;;
33421;SDS011;19763;55.798;37.782;2023-02-01T10:01:23;31.05;;;18.85;;
33421;SDS011;19763;55.798;37.782;2023-02-01T10:03:56;29.88;;;19.35;;
33421;SDS011;19763;55.798;37.782;2023-02-01T10:06:32;28.88;;;19.95;;
33421;SDS011;19763;55.798;37.782;2023-02-01T10:09:20;35.45;;;22.27;;
33421;SDS011;19763;55.798;37.782;2023-02-01T10:25:55;32.40;;;20.98;;
33421;SDS011;19763;55.798;37.782;2023-02-01T10:28:25;33.30;;;21.98;;
33421;SDS011;19763;55.798;37.782;2023-02-01T10:30:52;33.00;;;21.95;;
33421;SDS011;19763;55.798;37.782;2023-02-01T10:33:23;32.88;;;20.38;;
33421;SDS011;19763;55.798;37.782;2023-02-01T10:36:01;34.90;;;21.92;;
33421;SDS011;19763;55.798;37.782;2023-02-01T10:38:35;33.55;;;21.92;;
33421;SDS011;19763;55.798;37.782;2023-02-01T10:41:12;31.98;;;20.40;;
33421;SDS011;19763;55.798;37.782;2023-02-01T10:43:41;39.08;;;23.25;;
33421;SDS011;19763;55.798;37.782;2023-02-01T10:46:08;36.67;;;21.48;;
33421;SDS011;19763;55.798;37.782;2023-02-01T10:48:34;40.25;;;22.73;;
33421;SDS011;19763;55.798;37.782;2023-02-01T10:51:02;40.63;;;24.20;;
33421;SDS011;19763;55.798;37.782;2023-02-01T10:53:36;31.42;;;20.63;;
33421;SDS011;19763;55.798;37.782;2023-02-01T10:56:08;31.17;;;20.35;;
33421;SDS011;19763;55.798;37.782;2023-02-01T10:58:35;29.90;;;19.63;;
33421;SDS011;19763;55.798;37.782;2023-02-01T11:01:09;37.95;;;21.88;;
33421;SDS011;19763;55.798;37.782;2023-02-01T11:03:55;32.50;;;20.00;;
33421;SDS011;19763;55.798;37.782;2023-02-01T11:09:22;28.52;;;19.40;;
33421;SDS011;19763;55.798;37.782;2023-02-01T11:14:15;29.08;;;19.75;;
33421;SDS011;19763;55.798;37.782;2023-02-01T11:16:48;27.95;;;19.15;;
33421;SDS011;19763;55.798;37.782;2023-02-01T11:19:16;32.13;;;19.30;;
33421;SDS011;19763;55.798;37.782;2023-02-01T11:21:42;36.10;;;19.88;;
33421;SDS011;19763;55.798;37.782;2023-02-01T11:24:45;27.75;;;18.70;;
33421;SDS011;19763;55.798;37.782;2023-02-01T11:27:05;27.02;;;18.48;;
33421;SDS011;19763;55.798;37.782;2023-02-01T11:29:43;28.67;;;19.15;;
33421;SDS011;19763;55.798;37.782;2023-02-01T11:32:12;30.52;;;19.15;;
33421;SDS011;19763;55.798;37.782;2023-02-01T11:34:42;39.53;;;21.55;;
33421;SDS011;19763;55.798;37.782;2023-02-01T11:37:19;44.57;;;21.70;;
33421;SDS011;19763;55.798;37.782;2023-02-01T11:39:56;28.92;;;19.60;;
33421;SDS011;19763;55.798;37.782;2023-02-01T11:42:23;27.05;;;19.30;;
33421;SDS011;19763;55.798;37.782;2023-02-01T11:44:49;29.45;;;18.65;;
33421;SDS011;19763;55.798;37.782;2023-02-01T11:47:19;29.77;;;19.17;;
33421;SDS011;19763;55.798;37.782;2023-02-01T11:50:05;31.98;;;18.85;;
33421;SDS011;19763;55.798;37.782;2023-02-01T11:58:27;33.10;;;20.67;;
33421;SDS011;19763;55.798;37.782;2023-02-01T12:10:00;31.10;;;20.00;;
33421;SDS011;19763;55.798;37.782;2023-02-01T12:24:18;32.28;;;20.25;;
33421;SDS011;19763;55.798;37.782;2023-02-01T12:26:47;31.52;;;20.90;;
33421;SDS011;19763;55.798;37.782;2023-02-01T12:29:34;30.00;;;19.92;;
33421;SDS011;19763;55.798;37.782;2023-02-01T12:32:09;32.40;;;20.15;;
33421;SDS011;19763;55.798;37.782;2023-02-01T12:43:18;28.70;;;18.90;;
33421;SDS011;19763;55.798;37.782;2023-02-01T12:46:25;30.95;;;18.40;;
33421;SDS011;19763;55.798;37.782;2023-02-01T12:48:56;170.65;;;35.40;;
33421;SDS011;19763;55.798;37.782;2023-02-01T12:51:34;26.23;;;17.02;;
33421;SDS011;19763;55.798;37.782;2023-02-01T12:54:22;25.50;;;16.73;;
33421;SDS011;19763;55.798;37.782;2023-02-01T12:56:59;28.17;;;16.15;;
33421;SDS011;19763;55.798;37.782;2023-02-01T12:59:42;19.38;;;13.35;;
33421;SDS011;19763;55.798;37.782;2023-02-01T13:07:39;19.92;;;13.98;;
33421;SDS011;19763;55.798;37.782;2023-02-01T13:10:15;20.40;;;14.23;;
33421;SDS011;19763;55.798;37.782;2023-02-01T13:12:56;23.80;;;14.75;;
33421;SDS011;19763;55.798;37.782;2023-02-01T13:15:41;23.35;;;14.93;;
33421;SDS011;19763;55.798;37.782;2023-02-01T13:18:13;21.85;;;14.00;;
33421;SDS011;19763;55.798;37.782;2023-02-01T13:23:43;23.73;;;15.65;;
33421;SDS011;19763;55.798;37.782;2023-02-01T13:26:12;24.20;;;15.60;;
33421;SDS011;19763;55.798;37.782;2023-02-01T13:28:42;25.27;;;16.08;;
33421;SDS011;19763;55.798;37.782;2023-02-01T13:42:24;22.60;;;15.25;;
33421;SDS011;19763;55.798;37.782;2023-02-01T13:45:03;22.83;;;14.75;;
33421;SDS011;19763;55.798;37.782;2023-02-01T13:47:39;24.55;;;14.68;;
33421;SDS011;19763;55.798;37.782;2023-02-01T13:50:19;25.88;;;16.98;;
33421;SDS011;19763;55.798;37.782;2023-02-01T13:55:58;23.00;;;15.25;;
33421;SDS011;19763;55.798;37.782;2023-02-01T13:58:33;24.73;;;15.68;;
33421;SDS011;19763;55.798;37.782;2023-02-01T14:03:51;27.13;;;16.20;;
33421;SDS011;19763;55.798;37.782;2023-02-01T14:11:38;26.38;;;16.17;;
33421;SDS011;19763;55.798;37.782;2023-02-01T14:19:30;24.35;;;15.15;;
33421;SDS011;19763;55.798;37.782;2023-02-01T14:22:33;24.83;;;15.17;;
33421;SDS011;19763;55.798;37.782;2023-02-01T14:24:54;24.60;;;14.63;;
33421;SDS011;19763;55.798;37.782;2023-02-01T14:27:26;24.67;;;14.45;;
33421;SDS011;19763;55.798;37.782;2023-02-01T14:32:25;20.10;;;13.60;;
33421;SDS011;19763;55.798;37.782;2023-02-01T14:34:58;21.83;;;13.07;;
33421;SDS011;19763;55.798;37.782;2023-02-01T14:39:55;26.92;;;16.40;;
33421;SDS011;19763;55.798;37.782;2023-02-01T14:47:48;23.52;;;14.82;;
33421;SDS011;19763;55.798;37.782;2023-02-01T14:53:10;23.00;;;15.77;;
33421;SDS011;19763;55.798;37.782;2023-02-01T15:03:49;24.80;;;14.88;;
33421;SDS011;19763;55.798;37.782;2023-02-01T15:08:49;25.40;;;16.42;;
33421;SDS011;19763;55.798;37.782;2023-02-01T15:11:19;24.63;;;15.77;;
33421;SDS011;19763;55.798;37.782;2023-02-01T15:13:49;22.48;;;14.05;;
33421;SDS011;19763;55.798;37.782;2023-02-01T15:16:18;21.45;;;14.50;;
33421;SDS011;19763;55.798;37.782;2023-02-01T15:18:45;22.67;;;14.35;;
33421;SDS011;19763;55.798;37.782;2023-02-01T15:21:24;24.70;;;15.93;;
33421;SDS011;19763;55.798;37.782;2023-02-01T15:23:50;24.77;;;15.25;;
33421;SDS011;19763;55.798;37.782;2023-02-01T15:26:35;24.40;;;15.18;;
33421;SDS011;19763;55.798;37.782;2023-02-01T15:29:01;25.63;;;15.88;;
33421;SDS011;19763;55.798;37.782;2023-02-01T15:31:37;25.35;;;15.55;;
33421;SDS011;19763;55.798;37.782;2023-02-01T15:34:05;25.38;;;15.45;;
33421;SDS011;19763;55.798;37.782;2023-02-01T15:36:31;26.05;;;16.52;;
33421;SDS011;19763;55.798;37.782;2023-02-01T15:39:15;28.92;;;17.45;;
33421;SDS011;19763;55.798;37.782;2023-02-01T15:41:56;26.42;;;16.45;;
33421;SDS011;19763;55.798;37.782;2023-02-01T15:44:28;24.90;;;15.90;;
33421;SDS011;19763;55.798;37.782;2023-02-01T15:46:59;27.70;;;17.02;;
33421;SDS011;19763;55.798;37.782;2023-02-01T15:49:31;26.42;;;16.73;;
33421;SDS011;19763;55.798;37.782;2023-02-01T15:54:32;27.60;;;16.92;;
33421;SDS011;19763;55.798;37.782;2023-02-01T15:57:09;27.33;;;17.47;;
33421;SDS011;19763;55.798;37.782;2023-02-01T15:59:37;26.88;;;17.58;;
33421;SDS011;19763;55.798;37.782;2023-02-01T16:04:52;29.95;;;17.77;;
33421;SDS011;19763;55.798;37.782;2023-02-01T16:07:25;28.45;;;18.15;;
33421;SDS011;19763;55.798;37.782;2023-02-01T16:09:56;28.42;;;18.48;;
33421;SDS011;19763;55.798;37.782;2023-02-01T16:12:31;30.30;;;18.75;;
33421;SDS011;19763;55.798;37.782;2023-02-01T16:15:06;33.65;;;19.65;;
33421;SDS011;19763;55.798;37.782;2023-02-01T16:17:32;33.63;;;19.83;;
33421;SDS011;19763;55.798;37.782;2023-02-01T16:19:57;30.85;;;19.85;;
33421;SDS011;19763;55.798;37.782;2023-02-01T16:22:23;29.63;;;18.60;;
33421;SDS011;19763;55.798;37.782;2023-02-01T16:24:50;31.35;;;18.40;;
33421;SDS011;19763;55.798;37.782;2023-02-01T16:27:15;29.83;;;18.77;;
33421;SDS011;19763;55.798;37.782;2023-02-01T16:29:41;32.75;;;19.58;;
33421;SDS011;19763;55.798;37.782;2023-02-01T16:32:11;30.02;;;18.58;;
33421;SDS011;19763;55.798;37.782;2023-02-01T16:34:42;34.97;;;19.90;;
33421;SDS011;19763;55.798;37.782;2023-02-01T16:37:11;29.25;;;18.58;;
33421;SDS011;19763;55.798;37.782;2023-02-01T16:39:38;31.98;;;20.10;;
33421;SDS011;19763;55.798;37.782;2023-02-01T16:42:09;29.85;;;18.80;;
33421;SDS011;19763;55.798;37.782;2023-02-01T16:44:37;30.75;;;20.35;;
33421;SDS011;19763;55.798;37.782;2023-02-01T16:47:03;31.42;;;19.20;;
33421;SDS011;19763;55.798;37.782;2023-02-01T16:49:40;36.67;;;20.17;;
33421;SDS011;19763;55.798;37.782;2023-02-01T16:52:08;31.77;;;19.77;;
33421;SDS011;19763;55.798;37.782;2023-02-01T16:54:40;36.35;;;20.25;;
33421;SDS011;19763;55.798;37.782;2023-02-01T16:57:07;35.13;;;22.40;;
33421;SDS011;19763;55.798;37.782;2023-02-01T16:59:37;42.47;;;24.80;;
33421;SDS011;19763;55.798;37.782;2023-02-01T17:02:02;34.38;;;21.98;;
33421;SDS011;19763;55.798;37.782;2023-02-01T17:04:28;35.50;;;21.40;;
33421;SDS011;19763;55.798;37.782;2023-02-01T17:06:53;34.35;;;21.83;;
33421;SDS011;19763;55.798;37.782;2023-02-01T17:09:19;38.10;;;21.38;;